Time;durP1;ratioP1;P1;durP2;ratioP2;P2;SDS_P1;SDS_P2;PMS_P1;PMS_P2;Temp;Humidity;BMP_temperature;BMP_pressure;BME280_temperature;BME280_humidity;BME280_pressure;Samples;Min_cycle;Max_cycle;Signal;HPM_P1;HPM_P2
2022/01/06 00:00:00;;;;;;;6.53;1.10;;;;;;;5.46;47.50;97780.41;4473515;32;20510;-82
2022/01/06 00:02:26;;;;;;;6.00;1.20;;;;;;;5.40;47.12;97781.56;4473217;32;20088;-83
2022/01/06 00:04:52;;;;;;;8.27;1.33;;;;;;;5.53;47.02;97765.28;4487622;32;20080;-82
2022/01/06 00:07:17;;;;;;;4.43;1.40;;;;;;;5.42;47.24;97771.03;4473280;32;20104;-82
2022/01/06 00:09:43;;;;;;;4.90;1.30;;;;;;;5.35;47.41;97782.69;4487605;32;20072;-82
2022/01/06 00:12:12;;;;;;;5.90;1.20;;;;;;;5.19;47.92;97786.06;4473386;32;20080;-82
2022/01/06 00:14:57;;;;;;;5.57;1.25;;;;;;;5.18;47.91;97789.59;4487635;32;20088;-82
2022/01/06 00:17:38;;;;;;;8.23;1.52;;;;;;;5.36;47.52;97782.63;4475733;32;20118;-82
2022/01/06 00:25:33;;;;;;;5.82;1.20;;;;;;;5.07;48.21;97797.94;4487538;32;20099;-82
2022/01/06 00:27:59;;;;;;;6.15;1.23;;;;;;;5.14;48.19;97803.72;4487421;32;20104;-82
2022/01/06 00:30:24;;;;;;;6.65;1.50;;;;;;;5.29;47.82;97792.53;4487500;32;20137;-82
2022/01/06 00:32:50;;;;;;;5.32;1.20;;;;;;;5.32;47.81;97809.81;4473074;32;20114;-82
2022/01/06 00:35:15;;;;;;;5.87;1.50;;;;;;;5.24;48.06;97809.34;4473158;32;20132;-82
2022/01/06 00:37:41;;;;;;;5.68;1.17;;;;;;;5.40;47.64;97796.38;4487380;32;20109;-82
2022/01/06 00:40:07;;;;;;;5.80;1.30;;;;;;;5.45;47.58;97807.47;4473141;32;20116;-81
2022/01/06 00:42:32;;;;;;;3.55;1.30;;;;;;;5.58;47.30;97805.06;4473147;32;20091;-82
2022/01/06 00:44:58;;;;;;;6.62;1.60;;;;;;;5.40;47.48;97792.00;4473119;32;20102;-83
2022/01/06 00:47:23;;;;;;;7.82;1.62;;;;;;;5.47;47.69;97782.94;4487513;32;20367;-82
2022/01/06 00:49:49;;;;;;;7.78;1.60;;;;;;;5.17;48.18;97772.25;4487440;32;20084;-82
2022/01/06 00:52:14;;;;;;;9.02;1.65;;;;;;;5.48;47.66;97773.34;4487308;32;20138;-82
2022/01/06 00:54:40;;;;;;;4.25;1.33;;;;;;;5.34;48.02;97760.97;4473071;32;20490;-82
2022/01/06 00:57:05;;;;;;;5.12;1.17;;;;;;;5.48;47.92;97750.66;4487509;32;20092;-82
2022/01/06 00:59:31;;;;;;;3.53;1.02;;;;;;;5.43;48.01;97755.28;4487328;32;20455;-82
2022/01/06 01:01:56;;;;;;;6.28;1.35;;;;;;;5.19;48.46;97746.91;4487259;32;20076;-82
2022/01/06 01:04:22;;;;;;;5.40;1.40;;;;;;;4.96;49.09;97744.56;4473188;32;20076;-81
2022/01/06 01:06:47;;;;;;;5.68;1.35;;;;;;;5.17;48.80;97746.13;4473190;32;20141;-82
2022/01/06 01:09:13;;;;;;;5.78;1.55;;;;;;;5.06;49.18;97751.03;4487490;32;20107;-82
2022/01/06 01:11:38;;;;;;;7.25;1.40;;;;;;;5.16;48.88;97734.00;4487164;32;20110;-82
2022/01/06 01:14:17;;;;;;;4.45;1.20;;;;;;;4.96;49.44;97729.75;4472703;32;20102;-82
2022/01/06 01:16:52;;;;;;;6.65;1.62;;;;;;;5.48;48.62;97736.75;4487039;32;20484;-82
2022/01/06 01:19:18;;;;;;;6.25;1.42;;;;;;;5.58;48.28;97750.19;4474373;32;20119;-82
2022/01/06 01:21:44;;;;;;;4.55;1.37;;;;;;;5.54;48.14;97746.91;4487094;32;20096;-82
2022/01/06 01:24:09;;;;;;;5.32;1.20;;;;;;;5.37;48.48;97757.34;4487386;32;20115;-83
2022/01/06 01:26:35;;;;;;;6.95;1.40;;;;;;;5.72;48.01;97753.81;4487304;32;20092;-82
2022/01/06 01:29:00;;;;;;;8.80;1.92;;;;;;;5.77;47.79;97752.72;4487229;32;20100;-82
2022/01/06 01:31:28;;;;;;;6.22;1.95;;;;;;;5.51;48.26;97763.56;4486401;32;20106;-82
2022/01/06 01:33:57;;;;;;;4.95;1.30;;;;;;;5.11;49.48;97749.88;4486901;32;20701;-82
2022/01/06 01:36:23;;;;;;;4.75;1.33;;;;;;;5.24;49.05;97772.81;4473371;32;20452;-82
2022/01/06 01:38:48;;;;;;;6.57;1.48;;;;;;;5.43;48.74;97772.75;4473132;32;20160;-82
2022/01/06 01:41:14;;;;;;;4.25;1.25;;;;;;;5.43;48.87;97785.78;4487205;32;20084;-82
2022/01/06 01:43:40;;;;;;;6.12;1.52;;;;;;;5.15;49.49;97781.06;4487061;32;20081;-82
2022/01/06 01:46:15;;;;;;;7.30;1.55;;;;;;;5.34;49.35;97775.81;4472620;32;20175;-82
2022/01/06 01:48:47;;;;;;;7.05;1.77;;;;;;;5.31;49.17;97790.69;4460613;32;20487;-81
2022/01/06 01:51:12;;;;;;;6.78;1.55;;;;;;;5.00;50.16;97787.88;4487139;32;20115;-82
2022/01/06 01:53:38;;;;;;;5.60;1.40;;;;;;;5.24;49.78;97768.41;4472854;32;20375;-81
2022/01/06 01:56:06;;;;;;;6.18;1.60;;;;;;;4.86;50.49;97763.28;4472751;32;20104;-82
2022/01/06 01:58:33;;;;;;;8.07;1.70;;;;;;;5.20;49.90;97751.22;4472659;32;20101;-81
2022/01/06 02:00:59;;;;;;;8.30;1.70;;;;;;;5.20;50.15;97742.53;4472582;32;20410;-81
2022/01/06 02:03:24;;;;;;;5.22;1.58;;;;;;;5.35;49.66;97749.62;4472418;32;20125;-82
2022/01/06 02:05:49;;;;;;;5.62;1.55;;;;;;;5.45;49.45;97768.28;4472635;32;20136;-81
2022/01/06 02:08:15;;;;;;;5.80;1.37;;;;;;;5.31;49.85;97769.81;4486986;32;20344;-81
2022/01/06 02:10:40;;;;;;;7.10;1.80;;;;;;;5.07;50.58;97778.84;4486871;32;20153;-82
2022/01/06 02:13:06;;;;;;;6.60;1.80;;;;;;;5.14;50.37;97764.56;4472643;32;20084;-82
2022/01/06 02:15:31;;;;;;;6.97;1.50;;;;;;;5.00;50.79;97772.22;4486862;32;20401;-82
2022/01/06 02:17:57;;;;;;;4.60;1.50;;;;;;;4.94;51.14;97791.63;4472315;32;20104;-82
2022/01/06 02:20:23;;;;;;;7.12;1.60;;;;;;;5.05;50.59;97798.94;4486561;32;20112;-83
2022/01/06 02:22:49;;;;;;;7.15;1.50;;;;;;;5.00;50.84;97795.72;4472034;32;20377;-82
2022/01/06 02:25:22;;;;;;;6.12;1.65;;;;;;;5.17;50.38;97802.72;4472378;32;20097;-82
2022/01/06 02:27:51;;;;;;;5.62;1.50;;;;;;;4.86;51.26;97806.81;4472300;32;20103;-83
2022/01/06 02:30:17;;;;;;;4.93;1.30;;;;;;;5.13;50.68;97786.38;4472229;32;20081;-83
2022/01/06 02:32:43;;;;;;;5.62;1.62;;;;;;;5.41;49.96;97772.81;4472421;32;20084;-83
2022/01/06 02:35:17;;;;;;;5.55;1.40;;;;;;;5.23;50.39;97774.53;4472076;32;20108;-83
2022/01/06 02:37:42;;;;;;;6.20;1.67;;;;;;;5.36;50.19;97758.28;4486368;32;20084;-83
2022/01/06 02:40:10;;;;;;;5.78;1.50;;;;;;;5.30;50.30;97731.53;4472038;32;20129;-83
2022/01/06 02:42:41;;;;;;;4.60;1.20;;;;;;;5.43;49.95;97738.78;4473230;32;20068;-82
2022/01/06 02:45:06;;;;;;;5.22;1.20;;;;;;;5.69;49.44;97734.81;4474109;32;20100;-81
2022/01/06 02:47:32;;;;;;;7.53;1.83;;;;;;;5.60;49.39;97736.16;4473876;32;20096;-82
2022/01/06 02:49:58;;;;;;;6.37;1.83;;;;;;;5.58;49.37;97727.56;4474009;32;20076;-81
2022/01/06 02:52:23;;;;;;;5.55;1.55;;;;;;;5.63;49.20;97720.31;4488230;32;20099;-81
2022/01/06 02:54:49;;;;;;;4.70;1.27;;;;;;;5.58;49.34;97721.47;4473911;32;20464;-81
2022/01/06 02:57:14;;;;;;;5.60;1.65;;;;;;;5.59;49.49;97741.44;4473836;32;20352;-82
2022/01/06 02:59:40;;;;;;;5.03;1.20;;;;;;;5.50;49.57;97754.06;4488169;32;20123;-81
2022/01/06 03:02:05;;;;;;;9.82;1.70;;;;;;;5.26;50.16;97771.78;4488121;32;20455;-81
2022/01/06 03:04:31;;;;;;;5.72;1.52;;;;;;;5.28;50.27;97776.94;4473648;32;20109;-81
2022/01/06 03:06:56;;;;;;;5.93;1.50;;;;;;;5.28;50.31;97783.00;4488149;32;20080;-82
2022/01/06 03:09:25;;;;;;;5.15;1.33;;;;;;;5.15;50.65;97784.53;4488080;32;20436;-82
2022/01/06 03:11:51;;;;;;;5.10;1.42;;;;;;;4.90;51.15;97790.91;4487963;32;20092;-81
2022/01/06 03:14:17;;;;;;;9.35;1.50;;;;;;;4.98;51.02;97798.37;4488045;32;20475;-81
2022/01/06 03:16:42;;;;;;;4.57;1.30;;;;;;;4.51;51.85;97798.84;4487825;32;20086;-81
2022/01/06 03:19:07;;;;;;;5.55;1.55;;;;;;;4.77;51.62;97797.66;4487954;32;20420;-81
2022/01/06 03:21:33;;;;;;;5.68;1.48;;;;;;;4.82;51.54;97815.69;4473592;32;20084;-81
2022/01/06 03:23:58;;;;;;;4.55;1.40;;;;;;;4.72;51.80;97830.94;4487918;32;20432;-81
2022/01/06 03:26:23;;;;;;;7.93;1.62;;;;;;;4.56;52.17;97799.50;4488037;32;20214;-81
2022/01/06 03:28:49;;;;;;;7.50;1.50;;;;;;;4.72;51.89;97808.28;4473585;32;20157;-81
2022/01/06 03:31:15;;;;;;;5.22;1.50;;;;;;;4.72;51.97;97794.41;4487827;32;20141;-81
2022/01/06 03:33:40;;;;;;;3.53;1.20;;;;;;;4.77;51.84;97791.56;4473765;32;20141;-82
2022/01/06 03:36:05;;;;;;;4.75;1.30;;;;;;;4.84;51.65;97808.66;4487756;32;20428;-82
2022/01/06 03:38:31;;;;;;;5.95;1.70;;;;;;;4.85;51.49;97798.13;4473704;32;20087;-81
2022/01/06 03:40:56;;;;;;;3.78;1.40;;;;;;;4.95;51.47;97792.50;4473506;32;20081;-82
2022/01/06 03:43:21;;;;;;;5.85;1.55;;;;;;;4.81;51.80;97801.81;4487747;32;20448;-81
2022/01/06 03:45:47;;;;;;;4.47;1.27;;;;;;;4.75;51.92;97796.88;4473506;32;20143;-82
2022/01/06 03:48:12;;;;;;;5.93;1.60;;;;;;;4.91;51.65;97804.84;4487866;32;20111;-81
2022/01/06 03:50:38;;;;;;;4.60;1.30;;;;;;;4.93;51.51;97809.06;4488072;32;20322;-82
2022/01/06 03:53:03;;;;;;;4.65;1.20;;;;;;;4.93;51.52;97814.28;4487714;32;20088;-81
2022/01/06 03:55:29;;;;;;;6.47;1.98;;;;;;;4.80;51.96;97815.75;4473399;32;20459;-82
2022/01/06 03:57:54;;;;;;;6.93;1.40;;;;;;;5.11;51.29;97804.72;4487851;32;20106;-82
2022/01/06 04:00:21;;;;;;;6.95;1.80;;;;;;;5.07;51.22;97804.94;4473724;32;20084;-82
2022/01/06 04:02:47;;;;;;;4.00;1.35;;;;;;;4.78;51.81;97801.09;4473759;32;20135;-81
2022/01/06 04:05:13;;;;;;;6.47;1.52;;;;;;;4.66;52.22;97816.41;4487921;32;20088;-81
2022/01/06 04:07:39;;;;;;;7.07;1.60;;;;;;;4.66;52.32;97826.84;4487906;32;20447;-82
2022/01/06 04:10:06;;;;;;;6.60;1.58;;;;;;;4.58;52.69;97826.38;4487550;32;20081;-82
2022/01/06 04:12:35;;;;;;;4.67;1.40;;;;;;;4.44;53.09;97840.03;4473413;32;20467;-82
2022/01/06 04:15:03;;;;;;;5.15;1.50;;;;;;;4.69;52.48;97846.72;4473772;32;20100;-82
2022/01/06 04:17:28;;;;;;;6.12;1.70;;;;;;;4.63;52.62;97853.06;4473400;32;20080;-83
2022/01/06 04:19:53;;;;;;;3.80;1.30;;;;;;;4.86;52.26;97859.00;4473228;32;20098;-82
2022/01/06 04:22:19;;;;;;;9.10;1.70;;;;;;;4.92;52.07;97856.97;4487415;32;20088;-81
2022/01/06 04:24:47;;;;;;;6.53;1.70;;;;;;;4.91;51.81;97846.59;4487516;32;20122;-82
2022/01/06 04:27:12;;;;;;;6.75;1.80;;;;;;;4.95;51.78;97852.53;4473674;32;20088;-81
2022/01/06 04:29:38;;;;;;;7.45;1.60;;;;;;;5.15;51.34;97862.84;4487470;32;20415;-81
2022/01/06 04:32:04;;;;;;;5.93;1.55;;;;;;;5.04;51.87;97855.53;4487445;32;20381;-82
2022/01/06 04:34:30;;;;;;;7.22;1.70;;;;;;;5.01;52.08;97841.78;4487643;32;20092;-82
2022/01/06 04:36:57;;;;;;;7.05;1.80;;;;;;;5.14;51.65;97832.44;4473171;32;20111;-81
2022/01/06 04:39:23;;;;;;;5.07;1.52;;;;;;;5.13;51.72;97841.19;4487389;32;20153;-82
2022/01/06 04:41:48;;;;;;;4.05;1.27;;;;;;;5.28;51.34;97835.22;4487474;32;20447;-82
2022/01/06 04:44:14;;;;;;;5.30;1.45;;;;;;;5.41;51.25;97853.78;4487415;32;20146;-81
2022/01/06 04:46:39;;;;;;;5.37;1.40;;;;;;;5.14;51.83;97842.91;4487365;32;20115;-81
2022/01/06 04:49:05;;;;;;;5.37;1.58;;;;;;;4.89;52.31;97854.47;4487361;32;20128;-81
2022/01/06 04:51:31;;;;;;;7.47;1.65;;;;;;;4.92;52.34;97861.31;4487383;32;20092;-81
2022/01/06 04:53:57;;;;;;;7.95;1.85;;;;;;;5.14;51.67;97861.19;4473184;32;20153;-81
2022/01/06 04:56:22;;;;;;;7.30;1.70;;;;;;;5.42;51.41;97862.44;4459923;32;20097;-82
2022/01/06 04:58:48;;;;;;;6.40;1.42;;;;;;;5.43;51.35;97861.53;4460020;32;20093;-82
2022/01/06 05:01:15;;;;;;;4.28;1.40;;;;;;;5.32;51.13;97857.66;4487305;32;20180;-83
2022/01/06 05:03:40;;;;;;;6.72;1.70;;;;;;;5.24;51.48;97875.47;4487257;32;20119;-82
2022/01/06 05:06:05;;;;;;;6.50;1.50;;;;;;;5.50;50.72;97882.06;4486050;32;20087;-82
2022/01/06 05:08:31;;;;;;;3.70;1.23;;;;;;;5.43;50.75;97875.44;4472990;32;20111;-82
2022/01/06 05:10:56;;;;;;;7.75;1.40;;;;;;;5.17;51.31;97888.88;4459802;32;20084;-82
2022/01/06 05:13:22;;;;;;;6.15;1.62;;;;;;;5.21;51.18;97890.44;4487560;32;20389;-82
2022/01/06 05:15:47;;;;;;;5.65;1.27;;;;;;;5.48;50.65;97896.94;4487399;32;20137;-82
2022/01/06 05:18:13;;;;;;;5.28;1.20;;;;;;;5.56;50.44;97891.34;4487298;32;20155;-82
2022/01/06 05:20:42;;;;;;;7.07;1.70;;;;;;;5.29;50.78;97896.13;4487446;32;20085;-81
2022/01/06 05:23:08;;;;;;;6.90;1.42;;;;;;;5.24;51.32;97905.97;4487255;32;20100;-81
2022/01/06 05:25:34;;;;;;;6.50;1.30;;;;;;;5.24;50.96;97901.59;4487345;32;20096;-81
2022/01/06 05:27:59;;;;;;;7.40;1.52;;;;;;;4.90;51.83;97907.53;4473058;32;20084;-82
2022/01/06 05:30:25;;;;;;;7.35;2.05;;;;;;;5.42;50.93;97906.84;4487360;32;20100;-82
2022/01/06 05:32:50;;;;;;;6.40;1.70;;;;;;;5.02;51.50;97904.37;4487386;32;20521;-81
2022/01/06 05:35:16;;;;;;;6.45;1.67;;;;;;;5.22;51.23;97905.19;4487241;32;20103;-81
2022/01/06 05:37:42;;;;;;;6.90;1.55;;;;;;;5.26;51.17;97899.75;4472942;32;20080;-81
2022/01/06 05:40:08;;;;;;;5.22;1.58;;;;;;;5.42;50.67;97897.25;4472727;32;20132;-82
2022/01/06 05:42:33;;;;;;;4.25;1.25;;;;;;;5.45;50.57;97889.28;4486974;32;20088;-82
2022/01/06 05:44:59;;;;;;;6.78;1.33;;;;;;;5.22;51.11;97905.19;4486961;32;20124;-81
2022/01/06 05:47:24;;;;;;;7.68;1.67;;;;;;;5.16;51.18;97901.09;4486827;32;20107;-81
2022/01/06 05:49:49;;;;;;;7.40;1.73;;;;;;;5.17;51.12;97907.16;4486890;32;20084;-81
2022/01/06 05:52:15;;;;;;;4.45;1.60;;;;;;;5.16;51.12;97902.84;4472583;32;20119;-81
2022/01/06 05:54:40;;;;;;;7.80;1.77;;;;;;;5.11;51.79;97905.69;4486804;32;20084;-82
2022/01/06 05:57:09;;;;;;;6.32;1.77;;;;;;;5.29;51.15;97897.00;4472696;32;20088;-82
2022/01/06 05:59:35;;;;;;;4.18;1.52;;;;;;;5.33;51.14;97915.97;4472888;32;20487;-82
2022/01/06 06:02:01;;;;;;;6.03;1.70;;;;;;;5.11;51.63;97906.53;4472745;32;20132;-81
2022/01/06 06:04:26;;;;;;;5.70;1.73;;;;;;;5.01;51.79;97896.59;4487088;32;20188;-81
2022/01/06 06:06:52;;;;;;;6.12;1.80;;;;;;;5.13;51.87;97902.06;4472680;32;20146;-81
2022/01/06 06:09:17;;;;;;;6.93;1.80;;;;;;;4.79;52.32;97914.97;4472629;32;20147;-81
2022/01/06 06:11:43;;;;;;;10.80;1.95;;;;;;;4.90;52.39;97918.78;4472694;32;20492;-82
2022/01/06 06:14:08;;;;;;;6.95;2.72;;;;;;;5.08;51.97;97911.03;4486761;32;20096;-81
2022/01/06 06:16:33;;;;;;;6.93;1.62;;;;;;;5.16;51.78;97911.56;4472030;32;20072;-82
2022/01/06 06:18:59;;;;;;;7.32;1.70;;;;;;;5.06;51.96;97908.53;4486798;32;20085;-82
2022/01/06 06:21:24;;;;;;;5.95;1.60;;;;;;;4.97;52.32;97926.38;4486368;32;20092;-81
2022/01/06 06:23:50;;;;;;;6.12;1.90;;;;;;;4.86;52.57;97929.47;4472207;32;20468;-82
2022/01/06 06:26:16;;;;;;;6.03;1.67;;;;;;;5.10;52.21;97932.72;4472001;32;20368;-81
2022/01/06 06:28:41;;;;;;;8.18;2.40;;;;;;;4.95;52.66;97934.25;4472218;32;20119;-82
2022/01/06 06:31:07;;;;;;;5.35;1.52;;;;;;;4.97;52.67;97934.19;4472071;32;20163;-82
2022/01/06 06:33:32;;;;;;;4.45;1.70;;;;;;;4.69;53.47;97941.50;4486384;32;20144;-81
2022/01/06 06:35:57;;;;;;;7.22;1.80;;;;;;;4.74;53.43;97941.28;4486346;32;20080;-81
2022/01/06 06:38:23;;;;;;;6.28;1.50;;;;;;;4.62;53.87;97936.63;4486221;32;20109;-81
2022/01/06 06:40:48;;;;;;;7.87;2.08;;;;;;;4.48;54.33;97945.03;4486383;32;20340;-82
2022/01/06 06:43:14;;;;;;;8.93;2.33;;;;;;;4.80;53.37;97948.84;4471866;32;20084;-82
2022/01/06 06:45:40;;;;;;;5.18;1.60;;;;;;;4.73;53.67;97950.91;4471928;32;20080;-82
2022/01/06 06:48:06;;;;;;;6.95;1.77;;;;;;;4.70;53.73;97948.41;4486172;32;20497;-83
2022/01/06 06:50:31;;;;;;;6.25;1.70;;;;;;;4.53;54.13;97951.75;4486182;32;20099;-83
2022/01/06 06:52:57;;;;;;;6.07;1.92;;;;;;;4.72;54.03;97954.41;4486033;32;20100;-81
2022/01/06 06:55:22;;;;;;;5.03;1.95;;;;;;;4.74;53.85;97946.50;4471738;32;20148;-82
2022/01/06 06:57:47;;;;;;;7.05;1.65;;;;;;;4.84;53.82;97965.22;4471592;32;20096;-82
2022/01/06 07:00:13;;;;;;;6.57;2.00;;;;;;;4.79;53.68;97968.03;4485917;32;20103;-82
2022/01/06 07:02:39;;;;;;;5.05;1.67;;;;;;;4.84;53.72;97967.81;4485967;32;20088;-82
2022/01/06 07:05:05;;;;;;;10.13;2.50;;;;;;;4.65;54.10;97967.78;4485884;32;20069;-82
2022/01/06 07:07:31;;;;;;;6.30;1.60;;;;;;;4.68;54.26;97978.94;4485875;32;20137;-84
2022/01/06 07:09:56;;;;;;;9.25;1.90;;;;;;;4.95;53.77;97981.25;4485882;32;20439;-85
2022/01/06 07:12:22;;;;;;;8.00;2.03;;;;;;;4.89;53.69;97982.38;4485849;32;20095;-83
2022/01/06 07:14:48;;;;;;;6.00;1.77;;;;;;;5.06;53.45;97981.63;4485782;32;20081;-84
2022/01/06 07:17:13;;;;;;;7.37;1.60;;;;;;;4.99;53.48;98005.44;4485649;32;20084;-82
2022/01/06 07:19:39;;;;;;;9.48;2.20;;;;;;;4.85;53.87;97993.03;4485777;32;20168;-83
2022/01/06 07:22:05;;;;;;;9.90;2.30;;;;;;;4.80;54.18;97993.19;4485443;32;20436;-83
2022/01/06 07:24:31;;;;;;;6.03;1.73;;;;;;;4.80;54.41;97993.19;4471450;32;20142;-83
2022/01/06 07:26:56;;;;;;;8.43;2.00;;;;;;;4.82;54.21;98006.19;4485878;32;20352;-83
2022/01/06 07:29:22;;;;;;;11.12;2.17;;;;;;;4.97;53.79;98015.12;4486621;32;20106;-82
2022/01/06 07:31:47;;;;;;;8.18;1.80;;;;;;;5.02;53.71;98023.56;4487457;31;20084;-84
2022/01/06 07:34:13;;;;;;;7.97;1.85;;;;;;;4.76;54.44;98022.13;4489814;31;20068;-85
2022/01/06 07:36:38;;;;;;;5.37;1.80;;;;;;;4.95;54.03;98023.00;4492507;31;20085;-84
2022/01/06 07:39:04;;;;;;;8.43;1.80;;;;;;;4.86;54.39;98039.91;4488228;31;20092;-81
2022/01/06 07:41:29;;;;;;;7.95;2.03;;;;;;;4.89;54.29;98039.78;4485206;32;20088;-81
2022/01/06 07:43:54;;;;;;;5.15;1.80;;;;;;;5.00;54.26;98043.66;4473232;32;20357;-81
2022/01/06 07:46:20;;;;;;;7.25;2.35;;;;;;;5.40;53.14;98049.72;4486827;32;20144;-81
2022/01/06 07:48:55;;;;;;;9.40;2.00;;;;;;;5.15;53.67;98055.22;4487275;32;20436;-82
2022/01/06 07:51:24;;;;;;;8.38;2.10;;;;;;;5.18;53.70;98068.16;4493253;31;20318;-81
2022/01/06 07:53:50;;;;;;;9.27;2.05;;;;;;;5.36;53.12;98064.69;4493031;31;20081;-82
2022/01/06 07:56:16;;;;;;;11.05;2.17;;;;;;;5.37;53.14;98084.69;4494278;31;20089;-83
2022/01/06 07:58:42;;;;;;;8.75;2.20;;;;;;;5.41;53.14;98090.59;4498568;31;20134;-82
2022/01/06 08:01:09;;;;;;;6.53;1.75;;;;;;;5.44;52.99;98080.84;4486200;31;20114;-83
2022/01/06 08:03:34;;;;;;;9.98;2.08;;;;;;;5.52;52.98;98090.97;4503492;31;20076;-81
2022/01/06 08:06:00;;;;;;;4.57;1.70;;;;;;;5.26;53.66;98103.44;4489067;31;20123;-82
2022/01/06 08:08:25;;;;;;;9.10;2.10;;;;;;;5.78;52.46;98102.00;4489136;31;20092;-81
2022/01/06 08:10:50;;;;;;;7.43;2.05;;;;;;;5.37;53.25;98115.16;4502964;31;20079;-81
2022/01/06 08:13:16;;;;;;;9.77;2.17;;;;;;;5.58;52.88;98114.22;4503430;31;20075;-81
2022/01/06 08:15:41;;;;;;;6.90;2.10;;;;;;;5.61;52.78;98142.81;4503426;31;20088;-81
2022/01/06 08:18:07;;;;;;;9.93;1.92;;;;;;;6.13;51.53;98130.94;4488902;31;20089;-81
2022/01/06 08:20:35;;;;;;;8.23;2.00;;;;;;;5.72;52.44;98135.34;4503379;31;20080;-81
2022/01/06 08:23:00;;;;;;;10.10;1.90;;;;;;;6.04;52.00;98126.97;4503203;31;20098;-81
2022/01/06 08:25:26;;;;;;;6.75;1.75;;;;;;;6.26;51.23;98127.66;4503331;31;20095;-81
2022/01/06 08:27:51;;;;;;;9.88;1.80;;;;;;;6.36;51.10;98128.06;4503423;31;20096;-81
2022/01/06 08:30:17;;;;;;;6.95;1.60;;;;;;;6.05;51.74;98121.66;4503262;31;20080;-81
2022/01/06 08:32:42;;;;;;;6.40;1.90;;;;;;;6.09;51.66;98128.44;4475688;31;20088;-81
2022/01/06 08:35:08;;;;;;;8.98;1.95;;;;;;;6.18;51.68;98136.75;4475796;31;20471;-81
2022/01/06 08:37:33;;;;;;;7.95;1.92;;;;;;;6.35;51.11;98147.28;4503190;31;20089;-81
2022/01/06 08:39:59;;;;;;;9.23;1.95;;;;;;;6.19;51.32;98151.56;4488704;31;20106;-81
2022/01/06 08:42:24;;;;;;;6.93;2.17;;;;;;;6.08;51.63;98147.69;4503236;31;20088;-81
2022/01/06 08:44:50;;;;;;;7.93;1.98;;;;;;;6.17;51.46;98164.69;4503088;31;20088;-81
2022/01/06 08:47:15;;;;;;;6.65;1.70;;;;;;;6.43;50.84;98152.12;4503545;31;20381;-81
2022/01/06 08:49:41;;;;;;;7.12;1.80;;;;;;;6.66;50.21;98164.13;4489145;31;20072;-81
2022/01/06 08:52:07;;;;;;;8.63;1.98;;;;;;;6.63;50.45;98167.75;4489035;31;20560;-81
2022/01/06 08:54:33;;;;;;;7.10;1.83;;;;;;;6.73;50.23;98168.12;4489055;31;20147;-81
2022/01/06 08:56:58;;;;;;;6.87;1.73;;;;;;;6.76;49.80;98177.59;4503010;31;20140;-81
2022/01/06 08:59:24;;;;;;;7.72;1.70;;;;;;;6.50;50.60;98172.69;4503195;31;20352;-81
2022/01/06 09:01:49;;;;;;;5.68;1.58;;;;;;;6.98;49.75;98169.56;4503100;31;20076;-81
2022/01/06 09:04:17;;;;;;;10.15;2.10;;;;;;;7.01;49.50;98170.25;4488680;31;20409;-81
2022/01/06 09:06:43;;;;;;;7.40;1.95;;;;;;;7.07;49.15;98166.47;4489196;31;20096;-81
2022/01/06 09:09:08;;;;;;;6.95;1.80;;;;;;;6.85;49.50;98180.63;4503062;31;20080;-81
2022/01/06 09:11:33;;;;;;;8.73;2.00;;;;;;;6.82;49.62;98180.78;4503077;31;20101;-81
2022/01/06 09:13:59;;;;;;;7.12;1.75;;;;;;;6.89;49.78;98183.94;4503033;31;20157;-81
2022/01/06 09:16:24;;;;;;;8.93;1.73;;;;;;;6.66;50.35;98182.44;4502845;31;20080;-81
2022/01/06 09:18:50;;;;;;;5.28;1.70;;;;;;;6.93;49.74;98174.16;4488592;31;20084;-81
2022/01/06 09:21:22;;;;;;;7.70;1.87;;;;;;;6.94;49.65;98181.94;4502941;31;20105;-81
2022/01/06 09:23:48;;;;;;;7.95;1.73;;;;;;;7.09;49.24;98186.41;4502753;31;20100;-81
2022/01/06 09:26:13;;;;;;;5.90;1.67;;;;;;;7.05;49.35;98186.63;4503020;31;20115;-81
2022/01/06 09:28:38;;;;;;;7.40;1.67;;;;;;;7.01;49.43;98192.94;4502889;31;20465;-81
2022/01/06 09:31:04;;;;;;;4.70;1.42;;;;;;;7.17;48.88;98188.66;4502809;31;20117;-81
2022/01/06 09:33:29;;;;;;;7.47;2.30;;;;;;;6.83;49.72;98198.16;4502851;31;20084;-81
2022/01/06 09:35:55;;;;;;;8.68;1.75;;;;;;;6.97;49.15;98191.41;4502824;31;20115;-81
2022/01/06 09:38:20;;;;;;;6.25;1.60;;;;;;;6.95;49.37;98193.25;4488336;31;20163;-81
2022/01/06 09:40:46;;;;;;;7.20;1.50;;;;;;;7.03;48.88;98171.03;4502760;31;20114;-81
2022/01/06 09:43:12;;;;;;;5.62;1.70;;;;;;;7.20;48.58;98182.41;4502678;31;20443;-81
2022/01/06 09:45:38;;;;;;;7.45;2.28;;;;;;;7.28;48.66;98190.72;4502780;31;20152;-81
2022/01/06 09:48:05;;;;;;;5.00;1.58;;;;;;;7.12;48.77;98185.41;4502968;31;20083;-81
2022/01/06 09:50:30;;;;;;;5.40;1.50;;;;;;;7.10;48.81;98184.66;4502967;31;20080;-80
2022/01/06 09:52:56;;;;;;;9.55;2.00;;;;;;;6.78;49.47;98197.56;4487788;31;20092;-81
2022/01/06 09:55:21;;;;;;;6.43;1.67;;;;;;;6.92;49.43;98189.03;4475479;31;20156;-81
2022/01/06 09:57:58;;;;;;;8.95;1.80;;;;;;;7.11;48.83;98188.97;4502826;31;20076;-81
2022/01/06 10:00:27;;;;;;;7.43;1.80;;;;;;;6.86;49.57;98187.56;4502906;31;20071;-81
2022/01/06 10:02:55;;;;;;;8.50;2.05;;;;;;;7.22;48.84;98191.91;4488541;31;20111;-81
2022/01/06 10:05:20;;;;;;;8.43;1.83;;;;;;;7.11;49.02;98185.47;4502922;31;20402;-81
2022/01/06 10:07:46;;;;;;;7.62;1.50;;;;;;;6.72;50.01;98186.53;4488459;31;20088;-81
2022/01/06 10:10:13;;;;;;;8.02;1.77;;;;;;;6.90;49.97;98201.34;4488339;31;20106;-81
2022/01/06 10:12:40;;;;;;;7.10;1.40;;;;;;;7.01;49.59;98220.00;4502702;31;20092;-81
2022/01/06 10:15:20;;;;;;;6.15;1.73;;;;;;;7.11;49.31;98199.44;4488526;31;20579;-81
2022/01/06 10:17:46;;;;;;;8.95;1.70;;;;;;;7.15;49.25;98206.22;4488297;31;20110;-81
2022/01/06 10:20:17;;;;;;;6.80;1.67;;;;;;;7.23;49.17;98201.44;4502630;31;20096;-81
2022/01/06 10:22:48;;;;;;;8.55;1.85;;;;;;;7.51;48.21;98209.66;4502459;31;20143;-81
2022/01/06 10:25:15;;;;;;;7.03;1.83;;;;;;;7.55;48.10;98214.69;4488338;31;20119;-81
2022/01/06 10:27:41;;;;;;;7.30;1.70;;;;;;;7.58;48.05;98209.28;4502478;31;20111;-81
2022/01/06 10:30:08;;;;;;;6.93;1.65;;;;;;;7.46;48.22;98212.53;4502445;31;20090;-81
2022/01/06 10:32:34;;;;;;;7.68;1.90;;;;;;;7.65;47.81;98210.66;4487946;31;20107;-81
2022/01/06 10:35:02;;;;;;;5.95;1.75;;;;;;;7.38;48.35;98226.03;4487911;31;20095;-81
2022/01/06 10:37:40;;;;;;;7.07;2.03;;;;;;;7.38;48.62;98226.03;4488078;31;20080;-81
2022/01/06 10:40:12;;;;;;;5.97;1.65;;;;;;;7.49;48.78;98228.09;4487916;31;20068;-81
2022/01/06 10:42:44;;;;;;;6.68;2.28;;;;;;;7.75;48.01;98228.53;4487867;31;20411;-81
2022/01/06 10:45:15;;;;;;;6.30;1.80;;;;;;;7.80;47.81;98227.38;4502067;31;20084;-81
2022/01/06 10:47:46;;;;;;;9.30;1.77;;;;;;;7.37;48.92;98215.63;4487976;31;20387;-81
2022/01/06 10:50:21;;;;;;;7.25;2.00;;;;;;;7.73;48.09;98219.91;4487824;31;20129;-81
2022/01/06 10:53:07;;;;;;;8.90;1.90;;;;;;;7.74;47.78;98217.19;4502120;31;20118;-81
2022/01/06 10:55:43;;;;;;;6.65;1.70;;;;;;;7.98;47.39;98225.56;4474520;31;20103;-81
2022/01/06 10:58:18;;;;;;;7.28;1.83;;;;;;;7.98;46.82;98230.78;4487249;31;20076;-81
2022/01/06 11:00:46;;;;;;;9.43;2.10;;;;;;;8.06;47.10;98228.59;4487447;31;20085;-81
2022/01/06 11:03:19;;;;;;;9.75;2.17;;;;;;;7.65;47.68;98230.78;4487435;31;20119;-81
2022/01/06 11:05:50;;;;;;;9.23;1.87;;;;;;;7.44;48.43;98236.19;4503901;31;20095;-81
2022/01/06 11:08:18;;;;;;;6.87;1.77;;;;;;;7.45;48.62;98229.16;4503894;31;20154;-81
2022/01/06 11:11:02;;;;;;;8.15;1.95;;;;;;;7.37;49.01;98229.56;4503971;31;20245;-81
2022/01/06 11:13:33;;;;;;;6.68;1.80;;;;;;;7.50;48.73;98224.56;4478382;31;20092;-81
2022/01/06 11:15:59;;;;;;;6.87;1.87;;;;;;;7.16;49.58;98228.84;4503902;31;20114;-81
2022/01/06 11:18:24;;;;;;;6.35;1.80;;;;;;;7.29;49.40;98234.34;4503778;31;20083;-81
2022/01/06 11:20:51;;;;;;;8.18;2.20;;;;;;;7.18;49.63;98234.88;4489402;31;20450;-81
2022/01/06 11:23:24;;;;;;;7.75;2.05;;;;;;;6.85;50.77;98238.22;4489331;31;20100;-81
2022/01/06 11:26:12;;;;;;;7.93;2.33;;;;;;;7.03;50.30;98241.72;4489459;31;20122;-80
2022/01/06 11:28:40;;;;;;;5.87;1.90;;;;;;;7.37;49.48;98242.66;4503713;31;20084;-81
2022/01/06 11:31:22;;;;;;;6.95;1.83;;;;;;;7.45;49.49;98243.13;4503708;31;20367;-81
2022/01/06 11:33:49;;;;;;;6.70;1.55;;;;;;;7.37;49.64;98257.53;4489272;31;20100;-81
2022/01/06 11:36:26;;;;;;;8.77;2.05;;;;;;;7.73;48.96;98261.84;4489626;31;20092;-81
2022/01/06 11:38:52;;;;;;;8.18;1.80;;;;;;;7.86;48.72;98260.28;4503709;31;20080;-81
2022/01/06 11:41:18;;;;;;;7.25;2.05;;;;;;;7.78;48.68;98265.91;4489296;31;20083;-81
2022/01/06 11:43:46;;;;;;;9.32;2.00;;;;;;;7.80;48.66;98264.09;4503650;31;20091;-81